EIME

Casement Air Base Airport

Baldonnel, Ireland
TAF EIME 201700Z 2018/2103 29007KT 9999 FEW020 SCT035 BECMG 2019/2022 VRB03KT
Issued Valid From Valid To
Apr-20 @ 17:00 UTC
(2 hours ago)
Apr-20 @ 18:00 UTC
(37 minutes ago)
Apr-21 @ 03:00 UTC
(in 8 hours)
Apr-20 @ 18:00 to Apr-20 @ 19:00
TAF EIME 201700Z 2018/2103 29007KT 9999 FEW020 SCT035
Wind Visibility Clouds
290° at 7 knots 10,000+ meters
  • Few at 2,000' AGL
  • Scattered at 3,500' AGL
Becoming Apr-20 @ 19:00 to Apr-21 @ 03:00
BECMG 2019/2022 VRB03KT
Wind Visibility Clouds
Variable at 3 knots 10,000+ meters
  • Few at 2,000' AGL
  • Scattered at 3,500' AGL
TAF EIME 201700Z 2018/2103 29007KT 9999 FEW020 SCT035 BECMG 2019/2022 VRB03KT
Issued Apr-20 @ 17:00 UTC
(2 hours ago)
Valid From Apr-20 @ 18:00 UTC
(37 minutes ago)
Valid To Apr-21 @ 03:00 UTC
(in 8 hours)
Apr-20 @ 18:00 - Apr-20 @ 19:00
Wind Visibility
290° at 7 knots 10,000+ meters
Clouds
  • Few at 2,000' AGL
  • Scattered at 3,500' AGL
Becoming Apr-20 @ 19:00 - Apr-21 @ 03:00
Wind Visibility
Variable at 3 knots 10,000+ meters
Clouds
  • Few at 2,000' AGL
  • Scattered at 3,500' AGL